Impacts METAR Board INFO
IDs:

KMCO - Orlando Intl, FL, US

Updated at: 1645 UTC 18 Dec 2017
Potential Impact None Slight Moderate High
Time18/04Z 18/05Z 18/06Z 18/07Z 18/08Z 18/09Z 18/10Z 18/11Z 18/12Z 18/13Z 18/14Z 18/15Z 18/16Z
VIS10 10 7 6 6 4 3 0.25 0.25 0.25 0 0.25 10
CIG-- 300 -- -- -- -- -- 2 2 2 2 2 --
CoverFEWBKNSCTFEWSCTCLRCLROVXOVXOVXOVXOVCSCT
FltCatVFRVFRVFRVFRVFRMVFRMVFRLIFRLIFRLIFRLIFRLIFRVFR
WX------BRBRBRBR BCFGFGFGFGFGBR--
WDir160000000180190200200180180
WSpd5 0 0 0 0 0 0 4 4 3 4 5 5
WGst-- -- -- -- -- -- -- -- -- -- -- -- --
Raw hourly METARs
KMCO 180353Z 16005KT 10SM FEW300 17/17 A3024 RMK AO2 SLP237 T01720167 $
KMCO 180453Z 00000KT 10SM BKN300 17/17 A3024 RMK AO2 SLP238 T01720167 402670117 $
KMCO 180553Z 00000KT 7SM SCT300 17/17 A3023 RMK AO2 SLP235 T01720172 10211 20167 58002 $
KMCO 180653Z 00000KT 6SM BR FEW300 17/17 A3023 RMK AO2 SLP233 T01670167 $
KMCO 180753Z 00000KT 6SM BR SCT300 17/17 A3022 RMK AO2 SLP233 T01670167 $
KMCO 180853Z 00000KT 4SM R35L/1600VP6000FT BR CLR 16/16 A3021 RMK AO2 SLP229 T01560156 58006 $
KMCO 181001Z 00000KT 3SM R35L/1800VP6000FT BR BCFG CLR 16/16 A3020 RMK AO2 VIS E-SE 1 T01610161 $
KMCO 181103Z 18004KT 1/4SM R35L/1800V2800FT FG VV002 16/16 A3020 RMK AO2 TWR VIS 1/2 T01610161 $
KMCO 181153Z 19004KT 1/4SM R35L/2600V3000FT FG VV002 18/18 A3022 RMK AO2 TWR VIS 1/2 SLP231 T01780178 10178 20144 53002 $
KMCO 181253Z 20003KT 1/4SM R35L/0800V1200FT FG VV002 18/18 A3024 RMK AO2 TWR VIS 1/4 SLP239 T01780178
KMCO 181402Z 20004KT 0SM R35L/1600V3000FT FG VV002 19/19 A3025 RMK AO2 SFC VIS 1/2 T01890189 $
KMCO 181453Z 18005KT 1/4SM R35L/P6000FT BR OVC002 20/20 A3027 RMK AO2 SFC VIS 1 1/2 SLP249 T02000200 53010
KMCO 181553Z 18005KT 10SM FEW005 SCT250 23/20 A3027 RMK AO2 SLP247 T02330200